Time;durP1;ratioP1;P1;durP2;ratioP2;P2;SDS_P1;SDS_P2;PMS_P1;PMS_P2;Temp;Humidity;BMP_temperature;BMP_pressure;BME280_temperature;BME280_humidity;BME280_pressure;Samples;Min_cycle;Max_cycle;Signal;HPM_P1;HPM_P2
2021/01/02 00:02:03;;;;;;;15.40;12.73;;;6.60;91.40;;;;;;5069690;28;20719;-55
2021/01/02 00:04:47;;;;;;;15.00;12.67;;;6.60;91.60;;;;;;5065817;28;20694;-55
2021/01/02 00:07:44;;;;;;;19.60;15.70;;;6.60;91.20;;;;;;5038059;28;20625;-55
2021/01/02 00:10:12;;;;;;;16.23;12.43;;;6.50;91.20;;;;;;5051298;28;20619;-55
2021/01/02 00:12:48;;;;;;;18.93;13.90;;;6.50;91.10;;;;;;5062036;28;20697;-55
2021/01/02 00:15:17;;;;;;;14.97;12.20;;;6.50;91.10;;;;;;5071330;28;20625;-54
2021/01/02 00:17:51;;;;;;;15.40;13.80;;;6.50;91.10;;;;;;5071435;28;21051;-55
2021/01/02 00:20:41;;;;;;;17.10;14.37;;;6.50;91.10;;;;;;5071257;28;20679;-54
2021/01/02 00:23:14;;;;;;;16.40;13.70;;;6.60;91.40;;;;;;5070825;28;21135;-55
2021/01/02 00:25:41;;;;;;;17.93;13.70;;;6.60;91.50;;;;;;5071109;28;20653;-55
2021/01/02 00:28:21;;;;;;;16.63;12.90;;;6.60;91.60;;;;;;5071305;28;21009;-56
2021/01/02 00:31:05;;;;;;;18.87;14.00;;;6.60;91.40;;;;;;5070695;28;21090;-56
2021/01/02 00:33:43;;;;;;;17.50;13.73;;;6.70;91.30;;;;;;5069803;28;20653;-55
2021/01/02 00:36:13;;;;;;;18.17;14.23;;;6.70;91.20;;;;;;5071664;28;21173;-54
2021/01/02 00:38:40;;;;;;;18.17;14.60;;;6.70;91.20;;;;;;5071287;28;20617;-55
2021/01/02 00:41:07;;;;;;;17.17;13.80;;;6.70;91.40;;;;;;5071444;28;20664;-53
2021/01/02 00:43:34;;;;;;;16.10;13.80;;;6.70;91.60;;;;;;5071143;28;20695;-56
2021/01/02 00:46:01;;;;;;;15.40;11.90;;;6.80;91.60;;;;;;5071485;28;20651;-55
2021/01/02 00:48:28;;;;;;;15.03;12.63;;;6.80;91.60;;;;;;5052115;28;21057;-56
2021/01/02 00:50:55;;;;;;;15.10;13.57;;;6.90;91.50;;;;;;5050986;28;21036;-56
2021/01/02 00:53:38;;;;;;;17.20;13.77;;;6.90;91.40;;;;;;5050608;28;20692;-56
2021/01/02 00:56:23;;;;;;;14.90;13.10;;;6.90;91.30;;;;;;5063146;28;21194;-56
2021/01/02 00:59:31;;;;;;;17.10;13.80;;;6.90;91.30;;;;;;5070522;28;20655;-55
2021/01/02 01:02:18;;;;;;;14.43;12.90;;;6.90;91.20;;;;;;5058114;28;20650;-55
2021/01/02 01:05:07;;;;;;;15.37;13.27;;;6.90;91.20;;;;;;5054474;28;20708;-56
2021/01/02 01:07:35;;;;;;;17.60;13.03;;;6.90;91.40;;;;;;5054634;28;20994;-55
2021/01/02 01:10:06;;;;;;;15.87;14.27;;;7.00;91.50;;;;;;5054967;28;21214;-55
2021/01/02 01:12:36;;;;;;;16.30;13.53;;;7.00;91.60;;;;;;5075010;28;20677;-55
2021/01/02 01:15:04;;;;;;;19.03;14.27;;;7.00;91.60;;;;;;5073905;28;20670;-55
2021/01/02 01:17:33;;;;;;;15.77;12.80;;;7.00;91.50;;;;;;5056354;28;20727;-55
2021/01/02 01:19:59;;;;;;;17.40;14.17;;;7.00;91.40;;;;;;5074710;28;20658;-56
2021/01/02 01:22:26;;;;;;;19.20;16.47;;;7.10;91.40;;;;;;5064053;28;21311;-56
2021/01/02 01:25:04;;;;;;;17.40;14.30;;;7.00;91.20;;;;;;5060347;28;20691;-56
2021/01/02 01:27:39;;;;;;;14.13;12.63;;;7.10;91.40;;;;;;5074806;28;20627;-56
2021/01/02 01:30:07;;;;;;;16.50;12.70;;;7.10;91.60;;;;;;5072690;28;20649;-55
2021/01/02 01:32:35;;;;;;;16.60;14.50;;;7.10;91.70;;;;;;5055580;28;20654;-55
2021/01/02 01:35:02;;;;;;;22.67;16.03;;;7.10;91.70;;;;;;5074114;28;20666;-56
2021/01/02 01:37:29;;;;;;;20.87;18.33;;;7.10;91.70;;;;;;5073992;28;20672;-55
2021/01/02 01:39:56;;;;;;;21.00;16.27;;;7.10;91.70;;;;;;5073741;28;20682;-55
2021/01/02 01:42:40;;;;;;;18.17;15.03;;;7.10;91.70;;;;;;5073821;28;20713;-56
2021/01/02 01:45:14;;;;;;;18.67;15.17;;;7.10;91.90;;;;;;5073965;28;20693;-56
2021/01/02 01:47:42;;;;;;;17.70;14.53;;;7.20;91.90;;;;;;5075007;28;20625;-54
2021/01/02 01:50:25;;;;;;;19.33;14.93;;;7.20;91.90;;;;;;5053383;28;20623;-55
2021/01/02 01:53:28;;;;;;;19.20;16.10;;;7.20;91.80;;;;;;5054649;28;20653;-54
2021/01/02 01:56:18;;;;;;;21.00;16.33;;;7.20;91.80;;;;;;5069238;28;20645;-53
2021/01/02 01:59:19;;;;;;;20.67;17.50;;;7.20;91.70;;;;;;5067065;28;20733;-54
2021/01/02 02:01:46;;;;;;;21.83;16.87;;;7.20;91.70;;;;;;5073219;28;20671;-54
2021/01/02 02:04:51;;;;;;;19.50;16.03;;;7.20;91.70;;;;;;5072282;28;20713;-52
2021/01/02 02:07:20;;;;;;;20.07;16.40;;;7.20;91.80;;;;;;5044583;28;20622;-54
2021/01/02 02:09:58;;;;;;;19.53;17.37;;;7.20;91.90;;;;;;5073004;28;20715;-54
2021/01/02 02:12:25;;;;;;;21.23;15.27;;;7.20;91.90;;;;;;5072986;28;20680;-52
2021/01/02 02:15:06;;;;;;;23.80;17.27;;;7.20;91.90;;;;;;5072115;28;20672;-53
2021/01/02 02:17:42;;;;;;;20.40;15.80;;;7.20;91.90;;;;;;5073166;28;20627;-53
2021/01/02 02:20:10;;;;;;;20.70;17.57;;;7.20;92.10;;;;;;5072899;28;20617;-53
2021/01/02 02:22:38;;;;;;;19.10;16.07;;;7.20;92.30;;;;;;5072626;28;20695;-53
2021/01/02 02:25:07;;;;;;;19.90;16.97;;;7.30;92.50;;;;;;5071286;28;20687;-53
2021/01/02 02:27:35;;;;;;;25.90;18.80;;;7.30;92.30;;;;;;5072747;28;21214;-54
2021/01/02 02:30:10;;;;;;;23.17;18.10;;;7.30;92.20;;;;;;5073434;28;20651;-54
2021/01/02 02:32:38;;;;;;;27.93;18.00;;;7.20;92.10;;;;;;5068427;28;21252;-54
2021/01/02 02:35:07;;;;;;;26.60;18.20;;;7.20;92.00;;;;;;5073365;28;20620;-54
2021/01/02 02:37:37;;;;;;;23.23;17.50;;;7.20;92.00;;;;;;5072904;28;20646;-54
2021/01/02 02:40:06;;;;;;;22.33;17.03;;;7.20;92.00;;;;;;5072526;28;20655;-54
2021/01/02 02:42:34;;;;;;;27.60;19.43;;;7.20;92.00;;;;;;5073004;28;20718;-54
2021/01/02 02:45:00;;;;;;;25.20;18.37;;;7.20;92.10;;;;;;5073365;28;20681;-54
2021/01/02 02:47:27;;;;;;;19.73;17.30;;;7.20;92.00;;;;;;5070327;28;20642;-54
2021/01/02 02:49:55;;;;;;;19.70;16.97;;;7.20;92.00;;;;;;5072469;28;20764;-54
2021/01/02 02:52:25;;;;;;;22.80;17.57;;;7.20;92.00;;;;;;5072390;28;21299;-54
2021/01/02 02:54:52;;;;;;;24.63;18.43;;;7.20;92.20;;;;;;5055821;28;20658;-54
2021/01/02 02:57:19;;;;;;;22.00;17.50;;;7.20;92.30;;;;;;5052255;28;20624;-54
2021/01/02 02:59:46;;;;;;;22.83;17.77;;;7.20;92.30;;;;;;5052511;28;20628;-54
2021/01/02 03:02:13;;;;;;;22.30;17.77;;;7.20;92.30;;;;;;5052176;28;20681;-54
2021/01/02 03:04:40;;;;;;;21.33;16.40;;;7.30;92.40;;;;;;5052291;28;20693;-55
2021/01/02 03:07:07;;;;;;;21.33;17.10;;;7.30;92.30;;;;;;5052205;28;20634;-55
2021/01/02 03:09:34;;;;;;;20.77;17.30;;;7.30;92.20;;;;;;5052588;28;20627;-54
2021/01/02 03:12:01;;;;;;;22.57;18.40;;;7.30;92.20;;;;;;5052006;28;20655;-54
2021/01/02 03:14:28;;;;;;;23.27;17.13;;;7.30;92.20;;;;;;5052133;28;21453;-55
2021/01/02 03:16:58;;;;;;;19.50;16.10;;;7.30;92.20;;;;;;5052076;28;20660;-54
2021/01/02 03:19:26;;;;;;;18.93;16.17;;;7.30;92.20;;;;;;5052430;28;20632;-54
2021/01/02 03:21:53;;;;;;;15.93;13.70;;;7.30;92.20;;;;;;5042125;28;20663;-55
2021/01/02 03:24:20;;;;;;;19.27;17.33;;;7.30;92.20;;;;;;5072330;28;20628;-54
2021/01/02 03:26:47;;;;;;;18.10;16.20;;;7.30;92.20;;;;;;5052762;28;20632;-55
2021/01/02 03:29:14;;;;;;;20.10;15.70;;;7.30;92.20;;;;;;5071587;28;20632;-54
2021/01/02 03:31:41;;;;;;;22.70;17.83;;;7.30;92.20;;;;;;5070784;28;21250;-55
2021/01/02 03:34:08;;;;;;;23.03;18.90;;;7.20;92.10;;;;;;5070271;28;20650;-55
2021/01/02 03:36:35;;;;;;;18.57;16.57;;;7.40;92.20;;;;;;5071575;28;21186;-55
2021/01/02 03:39:01;;;;;;;21.27;16.90;;;7.30;92.10;;;;;;5071432;28;20667;-55
2021/01/02 03:41:28;;;;;;;22.30;15.83;;;7.20;92.10;;;;;;5071950;28;20654;-55
2021/01/02 03:43:55;;;;;;;20.00;15.93;;;7.20;92.30;;;;;;5071181;28;20698;-55
2021/01/02 03:46:27;;;;;;;23.20;18.97;;;7.20;92.40;;;;;;5071577;28;20626;-55
2021/01/02 03:48:54;;;;;;;19.23;16.80;;;7.20;92.40;;;;;;5071938;28;20655;-54
2021/01/02 03:51:24;;;;;;;21.60;17.83;;;7.20;92.40;;;;;;5052360;28;20662;-54
2021/01/02 03:53:51;;;;;;;20.80;15.90;;;7.20;92.40;;;;;;5051416;28;20628;-54
2021/01/02 03:56:18;;;;;;;22.27;16.97;;;7.20;92.40;;;;;;5066114;28;21192;-54
2021/01/02 03:58:45;;;;;;;21.70;16.57;;;7.20;92.40;;;;;;5070816;28;20665;-55
2021/01/02 04:01:12;;;;;;;20.63;17.40;;;7.10;92.40;;;;;;5071554;28;20624;-55
2021/01/02 04:03:40;;;;;;;18.63;15.00;;;7.20;92.50;;;;;;5071314;28;20695;-54
2021/01/02 04:06:07;;;;;;;21.50;18.20;;;7.20;92.50;;;;;;5071653;28;20645;-54
2021/01/02 04:08:34;;;;;;;18.63;15.67;;;7.10;92.50;;;;;;5070983;28;20658;-54
2021/01/02 04:11:01;;;;;;;20.97;17.00;;;7.10;92.50;;;;;;5071443;28;21007;-55
2021/01/02 04:13:28;;;;;;;18.20;16.17;;;7.10;92.50;;;;;;5071060;28;20689;-54
2021/01/02 04:15:54;;;;;;;24.13;17.47;;;7.10;92.60;;;;;;5071347;28;20652;-54
2021/01/02 04:18:21;;;;;;;17.47;14.80;;;7.10;92.60;;;;;;5068682;28;20673;-54
2021/01/02 04:20:49;;;;;;;21.33;17.73;;;7.10;92.70;;;;;;5071272;28;20666;-54
2021/01/02 04:23:16;;;;;;;24.30;17.97;;;7.00;92.70;;;;;;5070621;28;20728;-54
2021/01/02 04:25:42;;;;;;;22.13;17.47;;;7.00;92.80;;;;;;5069426;28;20712;-53
2021/01/02 04:28:10;;;;;;;23.63;18.00;;;7.00;92.90;;;;;;5053437;28;21041;-54
2021/01/02 04:30:37;;;;;;;23.40;17.90;;;7.10;92.90;;;;;;5052943;28;20619;-55
2021/01/02 04:33:04;;;;;;;25.50;20.57;;;7.10;92.90;;;;;;5065934;28;20695;-54
2021/01/02 04:35:31;;;;;;;20.83;16.67;;;7.10;92.90;;;;;;5051065;28;20620;-54
2021/01/02 04:38:01;;;;;;;22.47;18.07;;;7.10;92.80;;;;;;5054065;28;20771;-55
2021/01/02 04:40:28;;;;;;;25.57;20.17;;;7.10;92.80;;;;;;5054921;28;20667;-55
2021/01/02 04:42:54;;;;;;;27.57;20.67;;;7.10;92.70;;;;;;5055109;28;20691;-55
2021/01/02 04:45:21;;;;;;;23.93;18.63;;;7.10;92.60;;;;;;5054719;28;20659;-57
2021/01/02 04:47:49;;;;;;;28.13;20.60;;;7.00;92.60;;;;;;5074299;28;20631;-55
2021/01/02 04:50:16;;;;;;;27.20;19.90;;;7.00;92.60;;;;;;5074803;28;20628;-54
2021/01/02 04:52:43;;;;;;;27.57;19.83;;;7.00;92.60;;;;;;5074009;28;20716;-54
2021/01/02 04:55:11;;;;;;;27.17;19.77;;;7.00;92.60;;;;;;5074611;28;20643;-54
2021/01/02 04:57:38;;;;;;;30.47;19.47;;;7.00;92.70;;;;;;5074479;28;20659;-55
2021/01/02 05:00:06;;;;;;;30.00;21.50;;;6.90;92.90;;;;;;5074603;28;20655;-55
2021/01/02 05:02:34;;;;;;;33.00;20.77;;;6.90;93.00;;;;;;5074233;28;20662;-55
2021/01/02 05:05:00;;;;;;;29.83;20.70;;;6.90;92.90;;;;;;5074125;28;21253;-55
2021/01/02 05:07:28;;;;;;;34.47;22.00;;;6.90;92.90;;;;;;5074581;28;21227;-54
2021/01/02 05:09:55;;;;;;;28.67;20.07;;;6.90;92.90;;;;;;5074034;28;20619;-55
2021/01/02 05:12:27;;;;;;;32.43;19.90;;;6.90;92.90;;;;;;5074334;28;20700;-55
2021/01/02 05:15:05;;;;;;;28.80;20.33;;;6.90;93.00;;;;;;5072736;28;20651;-55
2021/01/02 05:17:32;;;;;;;26.87;19.37;;;6.90;93.00;;;;;;5074177;28;21026;-55
2021/01/02 05:20:03;;;;;;;33.27;19.60;;;6.90;93.10;;;;;;5073989;28;20676;-55
2021/01/02 05:22:30;;;;;;;31.60;19.60;;;6.90;93.10;;;;;;5095057;22;20718;-50
2021/01/02 05:25:12;;;;;;;28.80;19.60;;;6.90;93.10;;;;;;5071585;28;20691;-50
2021/01/02 05:27:46;;;;;;;29.63;19.93;;;6.90;93.00;;;;;;5071479;28;20629;-50
2021/01/02 05:30:21;;;;;;;28.20;20.60;;;6.90;93.00;;;;;;5071893;28;20659;-50
2021/01/02 05:32:58;;;;;;;26.47;17.73;;;6.90;93.00;;;;;;5071718;28;20720;-50
2021/01/02 05:35:25;;;;;;;28.03;20.80;;;6.90;93.00;;;;;;5071644;28;20654;-50
2021/01/02 05:37:52;;;;;;;24.27;19.13;;;6.90;92.90;;;;;;5071932;28;20652;-50
2021/01/02 05:40:34;;;;;;;24.70;18.87;;;6.90;92.90;;;;;;5061532;28;20662;-51
2021/01/02 05:43:02;;;;;;;26.73;19.10;;;6.90;93.00;;;;;;5059637;28;20739;-51
2021/01/02 05:45:29;;;;;;;31.23;17.87;;;6.90;93.00;;;;;;5071403;28;21019;-51
2021/01/02 05:48:10;;;;;;;24.50;18.70;;;6.90;93.00;;;;;;5051500;28;21167;-51
2021/01/02 05:50:43;;;;;;;27.40;18.97;;;6.90;93.00;;;;;;5051292;28;20636;-51
2021/01/02 05:53:18;;;;;;;27.17;19.27;;;6.90;93.00;;;;;;5051210;28;20792;-50
2021/01/02 05:55:44;;;;;;;23.73;16.50;;;6.90;92.90;;;;;;5051463;28;20653;-50
2021/01/02 05:58:18;;;;;;;22.50;17.73;;;6.90;92.90;;;;;;5050690;28;20641;-50
2021/01/02 06:00:45;;;;;;;29.20;18.77;;;6.90;92.80;;;;;;5051443;28;21018;-50
2021/01/02 06:03:27;;;;;;;24.60;15.90;;;6.90;92.80;;;;;;5052204;28;20718;-50
2021/01/02 06:05:58;;;;;;;23.43;16.63;;;6.80;92.80;;;;;;5051027;28;20686;-50
2021/01/02 06:08:43;;;;;;;22.40;17.57;;;6.80;92.80;;;;;;5050956;28;20640;-50
2021/01/02 06:11:12;;;;;;;22.30;16.37;;;6.80;92.80;;;;;;5060636;28;20750;-50
2021/01/02 06:13:40;;;;;;;21.13;16.33;;;6.80;92.90;;;;;;5070932;28;21242;-51
2021/01/02 06:16:08;;;;;;;24.70;18.17;;;6.80;92.90;;;;;;5070840;28;20626;-50
2021/01/02 06:18:36;;;;;;;18.90;15.60;;;6.80;93.20;;;;;;5071047;28;20631;-50
2021/01/02 06:21:03;;;;;;;24.57;16.87;;;6.80;92.80;;;;;;5070766;28;20653;-50
2021/01/02 06:23:30;;;;;;;24.83;17.80;;;6.80;92.80;;;;;;5085560;28;20680;-50
2021/01/02 06:25:57;;;;;;;19.10;14.57;;;6.80;92.80;;;;;;5090452;28;21250;-50
2021/01/02 06:28:27;;;;;;;23.30;17.60;;;6.80;92.60;;;;;;5090448;28;20718;-50
2021/01/02 06:31:01;;;;;;;22.67;17.50;;;6.70;92.60;;;;;;5090609;28;20676;-50
2021/01/02 06:33:28;;;;;;;21.13;16.40;;;6.80;92.50;;;;;;5079775;28;20680;-50
2021/01/02 06:35:56;;;;;;;27.07;18.90;;;6.80;92.50;;;;;;5069786;28;20619;-50
2021/01/02 06:38:23;;;;;;;24.70;17.70;;;6.80;92.50;;;;;;5070973;28;20675;-50
2021/01/02 06:40:50;;;;;;;23.97;17.77;;;6.70;92.40;;;;;;5069875;28;20650;-50
2021/01/02 06:43:18;;;;;;;24.57;17.47;;;6.80;92.60;;;;;;5069696;28;20752;-50
2021/01/02 06:45:46;;;;;;;23.47;16.63;;;6.70;92.50;;;;;;5049617;28;21194;-50
2021/01/02 06:48:36;;;;;;;24.13;16.77;;;6.70;92.40;;;;;;5049763;28;20767;-50
2021/01/02 06:51:04;;;;;;;20.90;15.53;;;6.70;92.40;;;;;;5050058;28;21241;-51
2021/01/02 06:53:32;;;;;;;23.37;17.13;;;6.70;92.40;;;;;;5049553;28;21000;-51
2021/01/02 06:55:59;;;;;;;22.77;15.40;;;6.70;92.40;;;;;;5050019;28;20673;-51
2021/01/02 06:58:33;;;;;;;21.80;17.00;;;6.70;92.70;;;;;;5068826;28;20668;-51
2021/01/02 07:01:00;;;;;;;21.53;16.47;;;6.70;92.40;;;;;;5074260;28;20661;-51
2021/01/02 07:03:48;;;;;;;19.57;15.53;;;6.80;92.30;;;;;;5089766;28;20684;-51
2021/01/02 07:06:22;;;;;;;26.57;16.60;;;6.70;92.30;;;;;;5064256;28;20701;-51
2021/01/02 07:08:49;;;;;;;21.17;16.00;;;6.70;92.30;;;;;;5069556;28;20660;-52
2021/01/02 07:11:23;;;;;;;26.50;16.57;;;6.70;92.40;;;;;;5070242;28;20638;-51
2021/01/02 07:13:49;;;;;;;24.83;17.10;;;6.70;92.40;;;;;;5069353;28;20711;-52
2021/01/02 07:16:29;;;;;;;19.90;15.03;;;6.70;92.40;;;;;;5076515;28;20811;-51
2021/01/02 07:18:56;;;;;;;23.90;17.53;;;6.70;92.30;;;;;;5069171;28;20646;-51
2021/01/02 07:21:33;;;;;;;23.20;17.00;;;6.70;92.30;;;;;;5080054;28;20668;-51
2021/01/02 07:24:20;;;;;;;26.13;16.60;;;6.70;92.60;;;;;;5089153;28;21211;-51
2021/01/02 07:26:47;;;;;;;24.00;17.40;;;6.70;92.40;;;;;;5089173;28;20687;-51
2021/01/02 07:29:18;;;;;;;26.90;17.50;;;6.70;92.40;;;;;;5089830;28;20664;-51
2021/01/02 07:31:44;;;;;;;26.63;20.10;;;6.60;92.40;;;;;;5089017;28;20663;-51
2021/01/02 07:34:22;;;;;;;28.27;17.47;;;6.70;92.50;;;;;;5073306;28;20864;-51
2021/01/02 07:36:49;;;;;;;25.07;15.90;;;6.60;92.40;;;;;;5069412;28;21215;-51
2021/01/02 07:39:16;;;;;;;21.17;16.40;;;6.60;92.80;;;;;;5052071;28;20630;-51
2021/01/02 07:41:43;;;;;;;24.20;17.10;;;6.60;92.50;;;;;;5069653;28;20650;-51
2021/01/02 07:44:10;;;;;;;24.70;16.43;;;6.60;92.90;;;;;;5070818;28;20629;-52
2021/01/02 07:46:44;;;;;;;19.30;13.57;;;6.70;92.60;;;;;;5051884;28;20726;-50
2021/01/02 07:49:11;;;;;;;22.50;16.80;;;6.70;92.50;;;;;;5072699;28;20648;-51
2021/01/02 07:51:39;;;;;;;24.60;16.43;;;6.70;92.50;;;;;;5073301;28;20629;-51
2021/01/02 07:54:06;;;;;;;25.00;16.87;;;6.60;92.60;;;;;;5089775;28;20633;-53
2021/01/02 07:56:36;;;;;;;24.27;17.00;;;6.70;92.30;;;;;;5090195;28;20650;-53
2021/01/02 07:59:22;;;;;;;17.00;14.07;;;6.70;92.40;;;;;;5077714;28;20985;-52
2021/01/02 08:01:49;;;;;;;18.57;14.30;;;6.70;92.40;;;;;;5066023;28;20754;-52
2021/01/02 08:04:17;;;;;;;21.73;16.80;;;6.70;92.40;;;;;;5067266;28;21043;-53
2021/01/02 08:06:48;;;;;;;19.23;13.90;;;6.70;92.30;;;;;;5069169;28;20673;-52
2021/01/02 08:09:15;;;;;;;20.90;14.53;;;6.70;92.20;;;;;;5063563;28;20701;-52
2021/01/02 08:11:52;;;;;;;18.20;13.43;;;6.80;92.00;;;;;;5051362;28;20663;-52
2021/01/02 08:14:19;;;;;;;24.07;15.70;;;6.80;91.90;;;;;;5081096;28;20612;-53
2021/01/02 08:17:00;;;;;;;22.30;16.00;;;6.80;91.80;;;;;;5079058;28;20662;-53
2021/01/02 08:19:29;;;;;;;16.17;13.70;;;6.70;91.80;;;;;;5072801;28;21086;-53
2021/01/02 08:21:57;;;;;;;20.17;15.30;;;6.80;91.80;;;;;;5055260;28;20646;-52
2021/01/02 08:24:23;;;;;;;18.80;14.63;;;6.70;91.70;;;;;;5073285;28;21183;-53
2021/01/02 08:26:50;;;;;;;17.57;14.47;;;6.80;91.70;;;;;;5073017;28;20661;-52
2021/01/02 08:29:17;;;;;;;25.40;14.87;;;6.80;91.60;;;;;;5073190;28;21198;-52
2021/01/02 08:31:48;;;;;;;19.50;13.80;;;6.80;91.50;;;;;;5072893;28;20688;-52
2021/01/02 08:34:21;;;;;;;20.80;16.33;;;6.80;91.60;;;;;;5072994;28;20629;-53
2021/01/02 08:36:48;;;;;;;17.70;14.03;;;6.80;91.60;;;;;;5060060;28;20628;-52
2021/01/02 08:39:20;;;;;;;17.43;14.20;;;6.80;91.50;;;;;;5053607;28;20624;-56
2021/01/02 08:41:55;;;;;;;18.63;13.50;;;6.80;91.40;;;;;;5052932;28;20697;-52
2021/01/02 08:44:32;;;;;;;16.20;13.00;;;6.90;91.40;;;;;;5053486;28;21160;-52
2021/01/02 08:46:59;;;;;;;18.80;12.87;;;6.90;91.30;;;;;;5053180;28;20975;-52
2021/01/02 08:49:34;;;;;;;18.77;13.43;;;6.90;90.90;;;;;;5067640;28;20631;-52
2021/01/02 08:52:16;;;;;;;15.00;12.40;;;6.90;90.90;;;;;;5072820;28;20659;-52
2021/01/02 08:54:44;;;;;;;14.43;12.77;;;6.90;90.60;;;;;;5056905;28;20697;-53
2021/01/02 08:57:27;;;;;;;18.13;14.63;;;6.90;90.40;;;;;;5052148;28;20634;-52
2021/01/02 09:00:08;;;;;;;13.70;11.07;;;6.90;90.40;;;;;;5052407;28;20645;-53
2021/01/02 09:02:35;;;;;;;18.70;11.60;;;6.90;90.40;;;;;;5061304;28;20717;-52
2021/01/02 09:05:06;;;;;;;14.90;11.80;;;6.90;90.20;;;;;;5072125;28;20669;-53
2021/01/02 09:07:33;;;;;;;15.20;11.50;;;7.00;90.20;;;;;;5072594;28;20636;-53
2021/01/02 09:10:17;;;;;;;17.60;12.70;;;7.00;89.40;;;;;;5060682;28;20626;-53
2021/01/02 09:12:58;;;;;;;15.07;12.77;;;6.90;89.80;;;;;;5052424;28;20698;-52
2021/01/02 09:15:46;;;;;;;19.07;14.50;;;7.00;90.20;;;;;;5052048;28;21246;-53
2021/01/02 09:18:14;;;;;;;20.77;12.40;;;7.00;90.50;;;;;;5052646;28;20718;-51
2021/01/02 09:20:41;;;;;;;18.80;13.60;;;7.00;90.40;;;;;;5065231;28;20657;-51
2021/01/02 09:23:08;;;;;;;21.40;15.50;;;7.10;90.40;;;;;;5070075;28;20646;-51
2021/01/02 09:25:37;;;;;;;20.00;15.70;;;7.10;90.20;;;;;;5071482;28;21244;-51
2021/01/02 09:28:14;;;;;;;20.40;14.60;;;7.10;90.20;;;;;;5071468;28;20637;-51
2021/01/02 09:30:41;;;;;;;18.83;14.07;;;7.20;90.40;;;;;;5071589;28;20657;-53
2021/01/02 09:33:08;;;;;;;19.20;13.40;;;7.20;90.30;;;;;;5071032;28;20671;-53
2021/01/02 09:35:36;;;;;;;14.60;12.07;;;7.30;90.30;;;;;;5071648;28;20658;-52
2021/01/02 09:38:03;;;;;;;13.33;11.17;;;7.30;90.40;;;;;;5072309;28;21156;-53
2021/01/02 09:40:31;;;;;;;17.53;12.60;;;7.30;90.20;;;;;;5071528;28;21167;-52
2021/01/02 09:42:58;;;;;;;18.87;12.70;;;7.40;90.10;;;;;;5071297;28;20640;-52
2021/01/02 09:45:25;;;;;;;16.20;11.80;;;7.40;89.90;;;;;;5071302;28;20778;-52
2021/01/02 09:47:52;;;;;;;15.60;12.60;;;7.40;89.70;;;;;;5071684;28;20620;-52
2021/01/02 09:50:19;;;;;;;16.00;12.20;;;7.40;89.90;;;;;;5071632;28;20628;-53
2021/01/02 09:52:46;;;;;;;17.17;12.63;;;7.40;89.90;;;;;;5071263;28;20698;-51
2021/01/02 09:55:14;;;;;;;14.97;11.50;;;7.50;90.00;;;;;;5070627;28;20632;-52
2021/01/02 09:57:42;;;;;;;12.87;11.50;;;7.50;89.60;;;;;;5071341;28;20625;-51
2021/01/02 10:00:09;;;;;;;14.07;10.97;;;7.60;89.80;;;;;;5070578;28;20705;-51
2021/01/02 10:02:36;;;;;;;13.00;10.07;;;7.60;89.30;;;;;;5071196;28;20699;-51
2021/01/02 10:05:05;;;;;;;15.53;10.00;;;7.60;89.20;;;;;;5071745;28;20626;-52
2021/01/02 10:07:32;;;;;;;12.07;9.80;;;7.60;88.30;;;;;;5053001;28;20657;-52
2021/01/02 10:09:58;;;;;;;10.07;8.03;;;7.70;87.20;;;;;;5071807;28;20721;-52
2021/01/02 10:12:25;;;;;;;9.20;8.10;;;7.70;86.00;;;;;;5070963;28;20660;-52
2021/01/02 10:14:53;;;;;;;16.10;7.27;;;7.70;85.20;;;;;;5070696;28;20755;-53
2021/01/02 10:17:19;;;;;;;9.37;8.37;;;7.80;84.70;;;;;;5070774;28;20633;-53
2021/01/02 10:19:47;;;;;;;9.43;8.43;;;7.80;83.40;;;;;;5071951;28;20624;-51
2021/01/02 10:22:14;;;;;;;9.60;8.60;;;7.80;82.60;;;;;;5070822;28;20693;-51
2021/01/02 10:24:41;;;;;;;9.53;8.53;;;7.80;82.50;;;;;;5070065;28;20664;-51
2021/01/02 10:27:08;;;;;;;12.63;10.60;;;7.80;82.50;;;;;;5070029;28;20699;-51
2021/01/02 10:29:36;;;;;;;10.53;8.80;;;7.80;82.50;;;;;;5070445;28;21160;-51
2021/01/02 10:32:04;;;;;;;9.87;7.70;;;7.80;82.20;;;;;;5070612;28;20659;-51
2021/01/02 10:34:31;;;;;;;10.47;9.43;;;7.80;82.50;;;;;;5069356;28;20683;-51
2021/01/02 10:36:58;;;;;;;12.30;9.70;;;7.90;82.50;;;;;;5070499;28;20660;-51
2021/01/02 10:39:25;;;;;;;10.47;8.50;;;7.90;82.10;;;;;;5070020;28;20686;-51
2021/01/02 10:41:51;;;;;;;9.40;8.13;;;7.90;82.20;;;;;;5069988;28;21049;-51
2021/01/02 10:44:19;;;;;;;9.50;8.40;;;7.90;82.40;;;;;;5069645;28;20623;-51
2021/01/02 10:46:46;;;;;;;11.30;8.03;;;7.90;82.20;;;;;;5069943;28;20684;-51
2021/01/02 10:49:14;;;;;;;10.57;8.77;;;7.90;81.30;;;;;;5069512;28;20685;-51
2021/01/02 10:51:40;;;;;;;12.70;8.30;;;8.00;81.40;;;;;;5069783;28;21179;-51
2021/01/02 10:54:09;;;;;;;10.73;7.47;;;8.00;80.90;;;;;;5068900;28;20633;-50
2021/01/02 10:56:36;;;;;;;8.57;6.93;;;8.10;80.60;;;;;;5069887;28;20627;-51
2021/01/02 10:59:02;;;;;;;7.77;6.80;;;8.00;79.90;;;;;;5069872;28;20624;-50
2021/01/02 11:01:29;;;;;;;8.77;6.43;;;8.00;79.60;;;;;;5069292;28;21202;-50
2021/01/02 11:03:56;;;;;;;9.27;6.50;;;8.00;79.20;;;;;;5069204;28;20722;-50
2021/01/02 11:06:23;;;;;;;8.43;6.00;;;8.10;78.80;;;;;;5069535;28;20765;-50
2021/01/02 11:08:50;;;;;;;7.87;6.50;;;8.10;78.30;;;;;;5069903;28;20656;-50
2021/01/02 11:11:20;;;;;;;6.33;5.73;;;8.10;77.90;;;;;;5062069;28;20653;-50
2021/01/02 11:13:47;;;;;;;8.20;6.50;;;8.10;77.80;;;;;;5069206;28;20710;-52
2021/01/02 11:16:14;;;;;;;6.60;5.40;;;8.20;77.60;;;;;;5069534;28;20655;-52
2021/01/02 11:18:40;;;;;;;6.40;5.80;;;8.20;76.90;;;;;;5069252;28;20621;-52
2021/01/02 11:21:08;;;;;;;6.10;5.50;;;8.30;76.20;;;;;;5051095;28;20686;-52
2021/01/02 11:23:37;;;;;;;5.80;5.20;;;8.30;75.20;;;;;;5079949;28;20667;-55
2021/01/02 11:26:08;;;;;;;7.67;5.23;;;8.30;74.70;;;;;;5072280;28;20649;-51
2021/01/02 11:28:35;;;;;;;5.93;5.33;;;8.40;74.40;;;;;;5069015;28;20637;-51
2021/01/02 11:31:02;;;;;;;5.63;4.70;;;8.40;73.70;;;;;;5069010;28;20658;-51
2021/01/02 11:33:29;;;;;;;4.90;4.47;;;8.40;73.70;;;;;;5068589;28;20644;-51
2021/01/02 11:35:56;;;;;;;4.80;4.27;;;8.40;72.70;;;;;;5069217;28;20621;-50
2021/01/02 11:38:23;;;;;;;5.97;4.63;;;8.50;72.40;;;;;;5068965;28;20617;-52
2021/01/02 11:40:51;;;;;;;5.70;4.40;;;8.50;71.50;;;;;;5068844;28;21044;-52
2021/01/02 11:43:18;;;;;;;5.30;4.23;;;8.50;69.60;;;;;;5068832;28;20653;-52
2021/01/02 11:45:45;;;;;;;5.33;4.83;;;8.60;69.10;;;;;;5068630;28;21182;-52
2021/01/02 11:48:13;;;;;;;4.97;4.07;;;8.60;68.80;;;;;;5068559;28;20664;-52
2021/01/02 11:50:40;;;;;;;4.77;3.37;;;8.60;67.90;;;;;;5051258;28;20632;-52
2021/01/02 11:53:07;;;;;;;4.27;3.53;;;8.60;65.90;;;;;;5068885;28;20661;-51
2021/01/02 11:55:34;;;;;;;2.90;2.47;;;8.60;65.90;;;;;;5068225;28;20729;-52
2021/01/02 11:58:01;;;;;;;5.43;3.37;;;8.60;65.70;;;;;;5068316;28;20674;-52
2021/01/02 12:00:28;;;;;;;3.80;3.50;;;8.60;65.40;;;;;;5068106;28;20625;-52
2021/01/02 12:02:55;;;;;;;3.90;2.50;;;8.60;64.80;;;;;;5068623;28;20650;-52
2021/01/02 12:05:22;;;;;;;3.20;2.90;;;8.60;64.60;;;;;;5062735;28;21001;-52
2021/01/02 12:07:49;;;;;;;5.07;3.53;;;8.60;63.80;;;;;;5068984;28;20725;-50
2021/01/02 12:10:16;;;;;;;4.00;3.43;;;8.60;63.00;;;;;;5062702;28;20641;-50
2021/01/02 12:12:43;;;;;;;3.00;2.70;;;8.60;62.60;;;;;;5051640;28;20681;-52
2021/01/02 12:15:12;;;;;;;4.07;3.13;;;8.60;62.70;;;;;;5062205;28;20944;-53
2021/01/02 12:17:39;;;;;;;3.60;3.30;;;8.60;62.80;;;;;;5049670;28;21213;-52
2021/01/02 12:20:07;;;;;;;2.80;2.50;;;8.60;62.60;;;;;;5048480;28;20650;-51
2021/01/02 12:22:36;;;;;;;3.60;2.73;;;8.60;61.40;;;;;;5048648;28;20661;-52
2021/01/02 12:25:05;;;;;;;3.97;3.00;;;8.60;61.60;;;;;;5061131;28;20983;-52
2021/01/02 12:27:32;;;;;;;2.53;2.33;;;8.60;62.10;;;;;;5060201;28;20689;-51
2021/01/02 12:29:59;;;;;;;3.47;3.17;;;8.60;61.90;;;;;;5055677;28;20656;-52
2021/01/02 12:32:27;;;;;;;3.00;2.70;;;8.60;61.50;;;;;;5068249;28;20680;-52
2021/01/02 12:34:54;;;;;;;3.17;2.77;;;8.60;61.50;;;;;;5068001;28;20675;-51
2021/01/02 12:37:21;;;;;;;2.87;2.43;;;8.60;62.00;;;;;;5068258;28;20645;-51
2021/01/02 12:39:48;;;;;;;3.50;2.53;;;8.60;61.30;;;;;;5068588;28;20685;-51
2021/01/02 12:42:14;;;;;;;3.30;2.83;;;8.60;60.80;;;;;;5068227;28;20697;-51
2021/01/02 12:44:41;;;;;;;3.23;2.93;;;8.60;60.50;;;;;;5067840;28;20621;-51
2021/01/02 12:47:09;;;;;;;2.20;2.00;;;8.60;60.60;;;;;;5067709;28;20685;-51
2021/01/02 12:49:36;;;;;;;2.67;2.47;;;8.60;60.60;;;;;;5068830;28;20630;-51
2021/01/02 12:52:04;;;;;;;2.80;2.60;;;8.60;60.20;;;;;;5067917;28;20976;-51
2021/01/02 12:54:31;;;;;;;3.13;2.80;;;8.60;60.00;;;;;;5068297;28;20629;-51
2021/01/02 12:56:58;;;;;;;3.60;2.93;;;8.50;59.70;;;;;;5067483;28;20709;-51